Lihue, HI

10:11 PM HST on October 21, 2014 (GMT -1000)
Kalaeloa (John Rodgers Field) | Change Station
CLOSE
Current Station
Airport
Location: Kalaeloa,
Elevation: 49 ft
Nearby Weather Stations

Elev 49 ft 21.31 °N, 158.07 °W | Updated 18 minutes ago

Mostly Cloudy
Mostly Cloudy
77 °F
Feels Like 77 °F
N
0
Wind Variable Wind from North

Today
High -- | Low -- °F
--% Chance of Precip.
Yesterday
High -- | Low -- °F
Precip. -- in
6:36 AM 6:07 PM
Waning Crescent, 3% visible
Pressure 30.04 in
Visibility 10.0 miles
Clouds Mostly Cloudy 3500 ft
Mostly Cloudy 6000 ft
Dew Point 71 °F
Humidity 82%
Rainfall 0.00 in
Snow Depth Not available.
UV 0 out of 12
Pollen Not available.
Air Quality Not available.
Flu Activity Sporadic
METAR PHJR 220753Z AUTO 00000KT 10SM BKN035 BKN060 25/22 A3002 RMK AO2 SLP172 T02500217 TSNO

More Conditions Fewer Conditions

Pressure 30.04 in
Visibility 10.0 miles
Clouds Mostly Cloudy 3500 ft
Mostly Cloudy 6000 ft
Dew Point 71 °F
Humidity 82%
Rainfall 0.00 in
Snow Depth Not available.
UV 0 out of 12
Pollen Not available.
Air Quality Not available.
Flu Activity Sporadic
METAR PHJR 220753Z AUTO 00000KT 10SM BKN035 BKN060 25/22 A3002 RMK AO2 SLP172 T02500217 TSNO

More Conditions Fewer Conditions

10-Day Weather Forecast

Almanac

Astronomy

Oct. 21, 2014 Rise Set
Actual Time 6:36 AM HST 6:07 PM HST
Civil Twilight 6:13 AM HST 6:30 PM HST
Nautical Twilight 5:47 AM HST 6:56 PM HST
Astronomical Twilight 5:21 AM HST 7:22 PM HST
Moon 4:45 AM HST (10/21) 4:56 PM HST (10/21)
Length of Visible Light 12h 16m
Length of Day
11h 31m
Tomorrow will be 1m 10s shorter.
Waning Crescent, 3% of the Moon is Illuminated
Oct 22
Waning Crescent
Oct 23
New
Oct 30
First Quarter
Nov 6
Full
Nov 14
Last Quarter

Yesterday's Extremes

State Highs State Lows

Community

WunderPhotos

Upload Photos

1,763,889 photos uploaded!

Nearby

Snow Depth

Station Depth Elevation
No new snow has been reported.

Earthquake Activity

City Distance Mag. Time & Date
No recent earthquake activity has been reported nearby.
Minimum magnitude displayed is 2.5.

Coastal Water Temperatures

Place Temperature
No Stations Reporting

Nearby Weather Stations